地図

経路データ

SID SEASON NUMBER BASIN SUBBASIN NAME ISO_TIME NATURE LAT LON WMO_WIND WMO_PRES WMO_AGENCY TRACK_TYPE DIST2LAND LANDFALL IFLAG USA_AGENCY USA_ATCF_ID USA_LAT USA_LON USA_RECORD USA_STATUS USA_WIND USA_PRES USA_SSHS USA_R34_NE USA_R34_SE USA_R34_SW USA_R34_NW USA_R50_NE USA_R50_SE USA_R50_SW USA_R50_NW USA_R64_NE USA_R64_SE USA_R64_SW USA_R64_NW USA_POCI USA_ROCI USA_RMW USA_EYE TOKYO_LAT TOKYO_LON TOKYO_GRADE TOKYO_WIND TOKYO_PRES TOKYO_R50_DIR TOKYO_R50_LONG TOKYO_R50_SHORT TOKYO_R30_DIR TOKYO_R30_LONG TOKYO_R30_SHORT TOKYO_LAND CMA_LAT CMA_LON CMA_CAT CMA_WIND CMA_PRES HKO_LAT HKO_LON HKO_CAT HKO_WIND HKO_PRES NEWDELHI_LAT NEWDELHI_LON NEWDELHI_GRADE NEWDELHI_WIND NEWDELHI_PRES NEWDELHI_CI NEWDELHI_DP NEWDELHI_POCI REUNION_LAT REUNION_LON REUNION_TYPE REUNION_WIND REUNION_PRES REUNION_TNUM REUNION_CI REUNION_RMW REUNION_R34_NE REUNION_R34_SE REUNION_R34_SW REUNION_R34_NW REUNION_R50_NE REUNION_R50_SE REUNION_R50_SW REUNION_R50_NW REUNION_R64_NE REUNION_R64_SE REUNION_R64_SW REUNION_R64_NW BOM_LAT BOM_LON BOM_TYPE BOM_WIND BOM_PRES BOM_TNUM BOM_CI BOM_RMW BOM_R34_NE BOM_R34_SE BOM_R34_SW BOM_R34_NW BOM_R50_NE BOM_R50_SE BOM_R50_SW BOM_R50_NW BOM_R64_NE BOM_R64_SE BOM_R64_SW BOM_R64_NW BOM_ROCI BOM_POCI BOM_EYE BOM_POS_METHOD BOM_PRES_METHOD NADI_LAT NADI_LON NADI_CAT NADI_WIND NADI_PRES WELLINGTON_LAT WELLINGTON_LON WELLINGTON_WIND WELLINGTON_PRES DS824_LAT DS824_LON DS824_STAGE DS824_WIND DS824_PRES TD9636_LAT TD9636_LON TD9636_STAGE TD9636_WIND TD9636_PRES TD9635_LAT TD9635_LON TD9635_WIND TD9635_PRES TD9635_ROCI NEUMANN_LAT NEUMANN_LON NEUMANN_CLASS NEUMANN_WIND NEUMANN_PRES MLC_LAT MLC_LON MLC_CLASS MLC_WIND MLC_PRES USA_GUST BOM_GUST BOM_GUST_PER REUNION_GUST REUNION_GUST_PER USA_SEAHGT USA_SEARAD_NE USA_SEARAD_SE USA_SEARAD_SW USA_SEARAD_NW STORM_SPEED STORM_DIR
1892039S13062 1892 6 SI MM NOT_NAMED 1892-02-07 18:00:00 NR -12.5000 62.0000 main 966 887 __________O___ -1 -12.5000 62.0000 7 18 240
1892039S13062 1892 6 SI MM NOT_NAMED 1892-02-07 21:00:00 NR -12.9527 61.1876 main 877 806 __________P___ -1 -12.9527 61.1876 7 18 240
1892039S13062 1892 6 SI MM NOT_NAMED 1892-02-08 00:00:00 NR -13.3832 60.4185 main 802 739 __________P___ -1 -13.3832 60.4185 7 16 240
1892039S13062 1892 6 SI MM NOT_NAMED 1892-02-08 03:00:00 NR -13.7719 59.7401 main 736 690 __________P___ -1 -13.7719 59.7401 7 14 239
1892039S13062 1892 6 SI MM NOT_NAMED 1892-02-08 06:00:00 NR -14.1000 59.2000 main 690 659 __________O___ -1 -14.1000 59.2000 7 11 237
1892039S13062 1892 6 SI MM NOT_NAMED 1892-02-08 09:00:00 NR -14.3562 58.8291 main 648 633 __________P___ -1 -14.3562 58.8291 7 7 232
1892039S13062 1892 6 SI MM NOT_NAMED 1892-02-08 12:00:00 NR -14.5585 58.5910 main 622 608 __________P___ -1 -14.5585 58.5910 7 5 226
1892039S13062 1892 6 SI MM NOT_NAMED 1892-02-08 15:00:00 NR -14.7316 58.4325 main 608 585 __________P___ -1 -14.7316 58.4325 7 4 220
1892039S13062 1892 6 SI MM NOT_NAMED 1892-02-08 18:00:00 NR -14.9000 58.3000 main 585 561 __________O___ -1 -14.9000 58.3000 7 5 221
1892039S13062 1892 6 SI MM NOT_NAMED 1892-02-08 21:00:00 NR -15.0714 58.1223 main 561 549 __________P___ -1 -15.0714 58.1223 7 5 224
1892039S13062 1892 6 SI MM NOT_NAMED 1892-02-09 00:00:00 NR -15.2473 57.9568 main 549 526 __________P___ -1 -15.2473 57.9568 7 5 221
1892039S13062 1892 6 SI MM NOT_NAMED 1892-02-09 03:00:00 NR -15.4495 57.7879 main 526 492 __________P___ -1 -15.4495 57.7879 7 6 217
1892039S13062 1892 6 SI MM NOT_NAMED 1892-02-09 06:00:00 NR -15.7000 57.6000 main 492 458 __________O___ -1 -15.7000 57.6000 7 7 216
1892039S13062 1892 6 SI MM NOT_NAMED 1892-02-09 09:00:00 NR -16.0248 57.3557 main 458 416 __________P___ -1 -16.0248 57.3557 7 9 215
1892039S13062 1892 6 SI MM NOT_NAMED 1892-02-09 12:00:00 NR -16.3977 57.0930 main 416 374 __________P___ -1 -16.3977 57.0930 7 9 213
1892039S13062 1892 6 SI MM NOT_NAMED 1892-02-09 15:00:00 NR -16.7967 56.8338 main 376 338 __________P___ -1 -16.7967 56.8338 7 9 210
1892039S13062 1892 6 SI MM NOT_NAMED 1892-02-09 18:00:00 NR -17.2000 56.6000 main 338 309 __________O___ -1 -17.2000 56.6000 7 9 208
1892039S13062 1892 6 SI MM NOT_NAMED 1892-02-09 21:00:00 NR -17.5424 56.4126 main 313 276 __________P___ -1 -17.5424 56.4126 7 8 205
1892039S13062 1892 6 SI MM NOT_NAMED 1892-02-10 00:00:00 NR -17.8899 56.2544 main 276 252 __________P___ -1 -17.8899 56.2544 7 8 201
1892039S13062 1892 6 SI MM NOT_NAMED 1892-02-10 03:00:00 NR -18.2674 56.1189 main 249 221 __________P___ -1 -18.2674 56.1189 7 9 196
1892039S13062 1892 6 SI MM NOT_NAMED 1892-02-10 06:00:00 NR -18.7000 56.0000 main 221 195 __________O___ -1 -18.7000 56.0000 7 10 194
1892039S13062 1892 6 SI MM NOT_NAMED 1892-02-10 09:00:00 NR -19.2256 55.8696 main 195 134 __________P___ -1 -19.2256 55.8696 7 11 192
1892039S13062 1892 6 SI MM NOT_NAMED 1892-02-10 12:00:00 NR -19.8050 55.7554 main 134 67 __________P___ -1 -19.8050 55.7554 7 12 189
1892039S13062 1892 6 SI MM NOT_NAMED 1892-02-10 15:00:00 NR -20.4069 55.6634 main 67 0 __________P___ -1 -20.4069 55.6634 7 12 187
1892039S13062 1892 6 SI MM NOT_NAMED 1892-02-10 18:00:00 NR -21.0000 55.6000 main 0 0 __________O___ -1 -21.0000 55.6000 7 11 185
1892039S13062 1892 6 SI MM NOT_NAMED 1892-02-10 21:00:00 NR -21.5190 55.5511 main 11 11 __________P___ -1 -21.5190 55.5511 7 10 183
1892039S13062 1892 6 SI MM NOT_NAMED 1892-02-11 00:00:00 NR -22.0274 55.5329 main 67 67 __________P___ -1 -22.0274 55.5329 7 10 0
1892039S13062 1892 6 SI MM NOT_NAMED 1892-02-11 03:00:00 NR -22.5471 55.5483 main 123 123 __________P___ -1 -22.5471 55.5483 7 11 177
1892039S13062 1892 6 SI MM NOT_NAMED 1892-02-11 06:00:00 NR -23.1000 55.6000 main 190 190 __________O___ -1 -23.1000 55.6000 7 12 174
1892039S13062 1892 6 SI MM NOT_NAMED 1892-02-11 09:00:00 NR -23.7222 55.6768 main 257 257 __________P___ -1 -23.7222 55.6768 7 13 172
1892039S13062 1892 6 SI MM NOT_NAMED 1892-02-11 12:00:00 NR -24.3775 55.7900 main 335 335 __________P___ -1 -24.3775 55.7900 7 13 170
1892039S13062 1892 6 SI MM NOT_NAMED 1892-02-11 15:00:00 NR -25.0441 55.9333 main 403 403 __________P___ -1 -25.0441 55.9333 7 14 168
1892039S13062 1892 6 SI MM NOT_NAMED 1892-02-11 18:00:00 NR -25.7000 56.1000 main 483 483 __________O___ -1 -25.7000 56.1000 7 13 166
1892039S13062 1892 6 SI MM NOT_NAMED 1892-02-11 21:00:00 NR -26.3285 56.2839 main 552 552 __________P___ -1 -26.3285 56.2839 7 13 165
1892039S13062 1892 6 SI MM NOT_NAMED 1892-02-12 00:00:00 NR -26.9327 56.4809 main 621 621 __________P___ -1 -26.9327 56.4809 7 13 163
1892039S13062 1892 6 SI MM NOT_NAMED 1892-02-12 03:00:00 NR -27.5205 56.6875 main 690 690 __________P___ -1 -27.5205 56.6875 7 12 162
1892039S13062 1892 6 SI MM NOT_NAMED 1892-02-12 06:00:00 NR -28.1000 56.9000 main 760 __________O___ -1 -28.1000 56.9000 7 12 162

IBTrACS Databaseについて

本データベースは、米国NOAAが公開する1842年以降の世界の熱帯低気圧のベストトラックデータアーカイブInternational Best Track Archive for Climate Stewardship (IBTrACS)を、ウェブで閲覧しやすい形式に変換したものです。

最終更新日:2021-12-06